Terminal Aerodrome Forecast
Issued by NWS Shreveport, LA

Home | Current Version | Previous Version | Text Only | Print | Product List | Glossary On
Versions: 1 2 3 4 5 6 7 8 9 10 11 12 13
000
FTUS44 KSHV 312300
TAFELD
TAF
KELD 312320Z 0100/0124 35010KT P6SM BKN040
     FM010200 36006KT P6SM SKC
     FM010500 36003KT P6SM SKC
     FM011500 03007KT P6SM SKC=

USA.gov is the U.S. government's official web portal to all federal, state and local government web resources and services.